ダカール の空港の天気 - METARとTAF

レオポール・セダール・サンゴール国際空港 ( GOOY / DKR ) - セネガル ダカール
飛行場実況気象(Metar)
観測時間07/29 00:00 GMT (07/29 00:00 UTC)
風向・風速西 3m/s
視程10km以上
天気現象
少しの雲 雲底高度 400m
気温27℃
湿度74%
気圧1012hPa
METARGOOY 290000Z 28006KT 9999 FEW013 27/22 Q1012
過去の天気等 Google飛行場航空写真 Wunderground天気予報

過去48時間のMETAR

飛行場予報(TAF)
発表時間: 7/28 23:00 GMT (7/28 23:00 UTC)
予報対象時間: 29日0時 GMT ~ 30日6時 GMT
風向・風速西 4m/s
視程10km以上
全天の4割程度の雲 雲底高度 400m
TAF GOOY 282300Z 2900/3006 28008KT 9999 SCT013